sensor_id;sensor_type;location;lat;lon;timestamp;pressure;altitude;pressure_sealevel;temperature;humidity
75460;BME280;64039;53.060;9.342;2024-01-16T00:01:17;99887.13;;;-1.40;100.00
75460;BME280;64039;53.060;9.342;2024-01-16T00:03:43;99885.97;;;-1.45;100.00
75460;BME280;64039;53.060;9.342;2024-01-16T00:06:10;99894.06;;;-1.37;100.00
75460;BME280;64039;53.060;9.342;2024-01-16T00:08:35;99897.97;;;-1.28;100.00
75460;BME280;64039;53.060;9.342;2024-01-16T00:11:04;99901.09;;;-1.17;100.00
75460;BME280;64039;53.060;9.342;2024-01-16T00:13:29;99903.75;;;-1.15;100.00
75460;BME280;64039;53.060;9.342;2024-01-16T00:15:55;99915.56;;;-1.17;100.00
75460;BME280;64039;53.060;9.342;2024-01-16T00:18:22;99913.88;;;-1.17;100.00
75460;BME280;64039;53.060;9.342;2024-01-16T00:20:48;99914.34;;;-1.24;100.00
75460;BME280;64039;53.060;9.342;2024-01-16T00:23:13;99914.75;;;-1.16;100.00
75460;BME280;64039;53.060;9.342;2024-01-16T00:25:39;99921.50;;;-1.33;100.00
75460;BME280;64039;53.060;9.342;2024-01-16T00:28:05;99930.19;;;-1.30;100.00
75460;BME280;64039;53.060;9.342;2024-01-16T00:30:30;99927.78;;;-1.12;100.00
75460;BME280;64039;53.060;9.342;2024-01-16T00:32:56;99930.09;;;-1.16;100.00
75460;BME280;64039;53.060;9.342;2024-01-16T00:35:21;99925.84;;;-1.16;100.00
75460;BME280;64039;53.060;9.342;2024-01-16T00:37:46;99927.50;;;-1.33;100.00
75460;BME280;64039;53.060;9.342;2024-01-16T00:40:12;99925.56;;;-1.37;100.00
75460;BME280;64039;53.060;9.342;2024-01-16T00:42:40;99923.69;;;-1.24;100.00
75460;BME280;64039;53.060;9.342;2024-01-16T00:45:05;99934.22;;;-1.18;100.00
75460;BME280;64039;53.060;9.342;2024-01-16T00:47:31;99928.28;;;-1.02;100.00
75460;BME280;64039;53.060;9.342;2024-01-16T00:49:56;99929.13;;;-1.02;100.00
75460;BME280;64039;53.060;9.342;2024-01-16T00:52:22;99922.09;;;-1.22;100.00
75460;BME280;64039;53.060;9.342;2024-01-16T00:54:47;99933.44;;;-1.17;100.00
75460;BME280;64039;53.060;9.342;2024-01-16T00:57:13;99941.56;;;-1.24;100.00
75460;BME280;64039;53.060;9.342;2024-01-16T00:59:40;99939.41;;;-1.17;100.00
75460;BME280;64039;53.060;9.342;2024-01-16T01:02:06;99944.34;;;-1.20;100.00
75460;BME280;64039;53.060;9.342;2024-01-16T01:04:33;99962.94;;;-1.22;100.00
75460;BME280;64039;53.060;9.342;2024-01-16T01:06:59;99963.63;;;-1.25;100.00
75460;BME280;64039;53.060;9.342;2024-01-16T01:09:24;99970.66;;;-1.06;100.00
75460;BME280;64039;53.060;9.342;2024-01-16T01:11:49;99967.09;;;-0.93;100.00
75460;BME280;64039;53.060;9.342;2024-01-16T01:14:15;99969.63;;;-0.93;100.00
75460;BME280;64039;53.060;9.342;2024-01-16T01:16:40;99969.88;;;-0.88;100.00
75460;BME280;64039;53.060;9.342;2024-01-16T01:19:06;99971.06;;;-0.82;100.00
75460;BME280;64039;53.060;9.342;2024-01-16T01:21:32;99968.03;;;-0.91;100.00
75460;BME280;64039;53.060;9.342;2024-01-16T01:23:57;99971.38;;;-0.75;100.00
75460;BME280;64039;53.060;9.342;2024-01-16T01:26:23;99967.91;;;-0.77;100.00
75460;BME280;64039;53.060;9.342;2024-01-16T01:28:48;99968.50;;;-0.82;100.00
75460;BME280;64039;53.060;9.342;2024-01-16T01:31:14;99977.41;;;-0.75;100.00
75460;BME280;64039;53.060;9.342;2024-01-16T01:33:39;99969.41;;;-0.81;100.00
75460;BME280;64039;53.060;9.342;2024-01-16T01:36:05;99974.91;;;-0.73;100.00
75460;BME280;64039;53.060;9.342;2024-01-16T01:38:31;99972.09;;;-0.78;100.00
75460;BME280;64039;53.060;9.342;2024-01-16T01:40:57;99968.91;;;-0.90;100.00
75460;BME280;64039;53.060;9.342;2024-01-16T01:43:23;99974.28;;;-0.86;100.00
75460;BME280;64039;53.060;9.342;2024-01-16T01:46:15;99980.03;;;-0.73;100.00
75460;BME280;64039;53.060;9.342;2024-01-16T01:48:43;99977.63;;;-0.70;100.00
75460;BME280;64039;53.060;9.342;2024-01-16T01:51:12;99986.94;;;-0.87;100.00
75460;BME280;64039;53.060;9.342;2024-01-16T01:53:39;99984.09;;;-0.77;100.00
75460;BME280;64039;53.060;9.342;2024-01-16T01:56:07;99983.28;;;-0.76;100.00
75460;BME280;64039;53.060;9.342;2024-01-16T01:58:34;99986.56;;;-0.78;100.00
75460;BME280;64039;53.060;9.342;2024-01-16T02:01:01;99984.38;;;-0.87;100.00
75460;BME280;64039;53.060;9.342;2024-01-16T02:03:28;99986.50;;;-0.80;100.00
75460;BME280;64039;53.060;9.342;2024-01-16T02:05:55;99986.31;;;-0.83;100.00
75460;BME280;64039;53.060;9.342;2024-01-16T02:08:21;99992.16;;;-0.86;100.00
75460;BME280;64039;53.060;9.342;2024-01-16T02:10:49;100007.81;;;-0.80;100.00
75460;BME280;64039;53.060;9.342;2024-01-16T02:13:15;100011.06;;;-0.99;100.00
75460;BME280;64039;53.060;9.342;2024-01-16T02:15:40;100022.72;;;-0.87;100.00
75460;BME280;64039;53.060;9.342;2024-01-16T02:18:07;100031.84;;;-1.07;100.00
75460;BME280;64039;53.060;9.342;2024-01-16T02:20:33;100037.63;;;-0.95;100.00
75460;BME280;64039;53.060;9.342;2024-01-16T02:23:03;100037.59;;;-1.12;100.00
75460;BME280;64039;53.060;9.342;2024-01-16T02:25:29;100038.63;;;-1.08;100.00
75460;BME280;64039;53.060;9.342;2024-01-16T02:27:54;100041.91;;;-1.11;100.00
75460;BME280;64039;53.060;9.342;2024-01-16T02:30:20;100048.69;;;-1.11;100.00
75460;BME280;64039;53.060;9.342;2024-01-16T02:32:45;100042.69;;;-1.12;100.00
75460;BME280;64039;53.060;9.342;2024-01-16T02:35:11;100042.50;;;-1.00;100.00
75460;BME280;64039;53.060;9.342;2024-01-16T02:37:36;100058.28;;;-1.07;100.00
75460;BME280;64039;53.060;9.342;2024-01-16T02:40:02;100070.88;;;-1.10;100.00
75460;BME280;64039;53.060;9.342;2024-01-16T02:42:32;100058.75;;;-1.29;100.00
75460;BME280;64039;53.060;9.342;2024-01-16T02:44:58;100068.44;;;-1.23;100.00
75460;BME280;64039;53.060;9.342;2024-01-16T02:47:23;100066.22;;;-1.32;100.00
75460;BME280;64039;53.060;9.342;2024-01-16T02:49:48;100072.22;;;-1.32;100.00
75460;BME280;64039;53.060;9.342;2024-01-16T02:52:14;100070.38;;;-1.49;100.00
75460;BME280;64039;53.060;9.342;2024-01-16T02:54:40;100060.69;;;-1.55;100.00
75460;BME280;64039;53.060;9.342;2024-01-16T02:57:05;100063.25;;;-1.55;100.00
75460;BME280;64039;53.060;9.342;2024-01-16T02:59:31;100072.41;;;-1.59;100.00
75460;BME280;64039;53.060;9.342;2024-01-16T03:01:56;100072.50;;;-1.42;100.00
75460;BME280;64039;53.060;9.342;2024-01-16T03:04:22;100075.03;;;-1.27;100.00
75460;BME280;64039;53.060;9.342;2024-01-16T03:06:47;100082.19;;;-1.36;100.00
75460;BME280;64039;53.060;9.342;2024-01-16T03:09:12;100080.16;;;-1.42;100.00
75460;BME280;64039;53.060;9.342;2024-01-16T03:11:38;100077.84;;;-1.37;100.00
75460;BME280;64039;53.060;9.342;2024-01-16T03:14:05;100083.03;;;-1.51;100.00
75460;BME280;64039;53.060;9.342;2024-01-16T03:16:31;100091.50;;;-1.37;100.00
75460;BME280;64039;53.060;9.342;2024-01-16T03:18:57;100091.75;;;-1.32;100.00
75460;BME280;64039;53.060;9.342;2024-01-16T03:21:22;100088.00;;;-1.39;100.00
75460;BME280;64039;53.060;9.342;2024-01-16T03:23:48;100097.31;;;-1.39;100.00
75460;BME280;64039;53.060;9.342;2024-01-16T03:26:14;100095.72;;;-1.52;100.00
75460;BME280;64039;53.060;9.342;2024-01-16T03:28:40;100095.38;;;-1.29;100.00
75460;BME280;64039;53.060;9.342;2024-01-16T03:31:05;100100.56;;;-1.42;100.00
75460;BME280;64039;53.060;9.342;2024-01-16T03:33:31;100103.22;;;-1.25;100.00
75460;BME280;64039;53.060;9.342;2024-01-16T03:35:56;100100.47;;;-1.29;100.00
75460;BME280;64039;53.060;9.342;2024-01-16T03:38:22;100095.53;;;-1.40;100.00
75460;BME280;64039;53.060;9.342;2024-01-16T03:40:47;100091.59;;;-1.35;100.00
75460;BME280;64039;53.060;9.342;2024-01-16T03:43:13;100097.25;;;-1.26;100.00
75460;BME280;64039;53.060;9.342;2024-01-16T03:45:39;100090.09;;;-1.47;100.00
75460;BME280;64039;53.060;9.342;2024-01-16T03:48:04;100106.00;;;-1.51;100.00
75460;BME280;64039;53.060;9.342;2024-01-16T03:50:30;100093.34;;;-1.49;100.00
75460;BME280;64039;53.060;9.342;2024-01-16T03:52:55;100111.19;;;-1.34;100.00
75460;BME280;64039;53.060;9.342;2024-01-16T03:55:21;100094.94;;;-1.36;100.00
75460;BME280;64039;53.060;9.342;2024-01-16T03:57:46;100108.47;;;-1.52;100.00
75460;BME280;64039;53.060;9.342;2024-01-16T04:00:12;100112.88;;;-1.35;100.00
75460;BME280;64039;53.060;9.342;2024-01-16T04:02:38;100108.41;;;-1.39;100.00
75460;BME280;64039;53.060;9.342;2024-01-16T04:05:04;100112.28;;;-1.31;100.00
75460;BME280;64039;53.060;9.342;2024-01-16T04:07:29;100113.06;;;-1.17;100.00
75460;BME280;64039;53.060;9.342;2024-01-16T04:09:55;100114.03;;;-1.15;100.00
75460;BME280;64039;53.060;9.342;2024-01-16T04:12:20;100116.50;;;-1.01;100.00
75460;BME280;64039;53.060;9.342;2024-01-16T04:14:46;100113.50;;;-1.24;100.00
75460;BME280;64039;53.060;9.342;2024-01-16T04:17:12;100118.16;;;-1.47;100.00
75460;BME280;64039;53.060;9.342;2024-01-16T04:19:37;100119.41;;;-1.25;100.00
75460;BME280;64039;53.060;9.342;2024-01-16T04:22:03;100115.25;;;-1.23;100.00
75460;BME280;64039;53.060;9.342;2024-01-16T04:24:30;100113.50;;;-1.24;100.00
75460;BME280;64039;53.060;9.342;2024-01-16T04:26:55;100111.47;;;-1.15;100.00
75460;BME280;64039;53.060;9.342;2024-01-16T04:29:21;100108.31;;;-1.25;100.00
75460;BME280;64039;53.060;9.342;2024-01-16T04:31:46;100115.91;;;-1.27;100.00
75460;BME280;64039;53.060;9.342;2024-01-16T04:34:12;100114.72;;;-1.32;100.00
75460;BME280;64039;53.060;9.342;2024-01-16T04:36:37;100110.88;;;-1.25;100.00
75460;BME280;64039;53.060;9.342;2024-01-16T04:39:03;100110.16;;;-1.38;100.00
75460;BME280;64039;53.060;9.342;2024-01-16T04:41:31;100104.97;;;-1.39;100.00
75460;BME280;64039;53.060;9.342;2024-01-16T04:43:56;100109.09;;;-1.42;100.00
75460;BME280;64039;53.060;9.342;2024-01-16T04:46:22;100101.97;;;-1.32;100.00
75460;BME280;64039;53.060;9.342;2024-01-16T04:48:47;100097.31;;;-1.39;100.00
75460;BME280;64039;53.060;9.342;2024-01-16T04:51:13;100101.63;;;-1.38;100.00
75460;BME280;64039;53.060;9.342;2024-01-16T04:53:38;100102.22;;;-1.28;100.00
75460;BME280;64039;53.060;9.342;2024-01-16T04:56:04;100098.34;;;-1.36;100.00
75460;BME280;64039;53.060;9.342;2024-01-16T04:58:30;100095.81;;;-1.36;100.00
75460;BME280;64039;53.060;9.342;2024-01-16T05:00:55;100091.50;;;-1.52;100.00
75460;BME280;64039;53.060;9.342;2024-01-16T05:03:20;100095.81;;;-1.66;100.00
75460;BME280;64039;53.060;9.342;2024-01-16T05:05:46;100097.19;;;-1.71;100.00
75460;BME280;64039;53.060;9.342;2024-01-16T05:08:11;100094.94;;;-1.51;100.00
75460;BME280;64039;53.060;9.342;2024-01-16T05:10:37;100104.06;;;-1.70;100.00
75460;BME280;64039;53.060;9.342;2024-01-16T05:13:02;100095.19;;;-1.77;100.00
75460;BME280;64039;53.060;9.342;2024-01-16T05:15:28;100097.28;;;-1.84;100.00
75460;BME280;64039;53.060;9.342;2024-01-16T05:17:53;100094.28;;;-1.77;100.00
75460;BME280;64039;53.060;9.342;2024-01-16T05:20:18;100098.00;;;-2.00;100.00
75460;BME280;64039;53.060;9.342;2024-01-16T05:22:44;100097.56;;;-2.08;100.00
75460;BME280;64039;53.060;9.342;2024-01-16T05:25:09;100103.59;;;-1.93;100.00
75460;BME280;64039;53.060;9.342;2024-01-16T05:27:35;100112.94;;;-2.07;100.00
75460;BME280;64039;53.060;9.342;2024-01-16T05:30:00;100109.53;;;-2.07;100.00
75460;BME280;64039;53.060;9.342;2024-01-16T05:32:26;100112.38;;;-1.87;100.00
75460;BME280;64039;53.060;9.342;2024-01-16T05:34:52;100115.22;;;-1.83;100.00
75460;BME280;64039;53.060;9.342;2024-01-16T05:37:19;100117.47;;;-2.02;100.00
75460;BME280;64039;53.060;9.342;2024-01-16T05:39:45;100116.84;;;-1.98;100.00
75460;BME280;64039;53.060;9.342;2024-01-16T05:42:11;100105.13;;;-1.81;100.00
75460;BME280;64039;53.060;9.342;2024-01-16T05:44:37;100106.34;;;-1.75;100.00
75460;BME280;64039;53.060;9.342;2024-01-16T05:47:04;100108.44;;;-1.67;100.00
75460;BME280;64039;53.060;9.342;2024-01-16T05:49:30;100110.50;;;-1.62;100.00
75460;BME280;64039;53.060;9.342;2024-01-16T05:51:55;100107.19;;;-1.89;100.00
75460;BME280;64039;53.060;9.342;2024-01-16T05:54:21;100109.41;;;-1.80;100.00
75460;BME280;64039;53.060;9.342;2024-01-16T05:56:46;100111.72;;;-1.70;100.00
75460;BME280;64039;53.060;9.342;2024-01-16T05:59:12;100110.22;;;-1.81;100.00
75460;BME280;64039;53.060;9.342;2024-01-16T06:01:37;100102.66;;;-1.80;100.00
75460;BME280;64039;53.060;9.342;2024-01-16T06:04:03;100105.63;;;-1.87;100.00
75460;BME280;64039;53.060;9.342;2024-01-16T06:06:29;100098.25;;;-1.82;100.00
75460;BME280;64039;53.060;9.342;2024-01-16T06:08:54;100115.03;;;-1.86;100.00
75460;BME280;64039;53.060;9.342;2024-01-16T06:11:30;100103.78;;;-1.90;100.00
75460;BME280;64039;53.060;9.342;2024-01-16T06:13:55;100100.28;;;-2.05;100.00
75460;BME280;64039;53.060;9.342;2024-01-16T06:16:21;100099.91;;;-2.11;100.00
75460;BME280;64039;53.060;9.342;2024-01-16T06:18:46;100103.81;;;-2.03;100.00
75460;BME280;64039;53.060;9.342;2024-01-16T06:21:12;100115.72;;;-2.17;100.00
75460;BME280;64039;53.060;9.342;2024-01-16T06:23:38;100117.97;;;-2.08;100.00
75460;BME280;64039;53.060;9.342;2024-01-16T06:26:03;100119.91;;;-2.04;100.00
75460;BME280;64039;53.060;9.342;2024-01-16T06:28:28;100117.44;;;-1.74;100.00
75460;BME280;64039;53.060;9.342;2024-01-16T06:30:54;100116.66;;;-1.73;100.00
75460;BME280;64039;53.060;9.342;2024-01-16T06:33:19;100119.53;;;-1.82;100.00
75460;BME280;64039;53.060;9.342;2024-01-16T06:35:45;100107.97;;;-1.90;100.00
75460;BME280;64039;53.060;9.342;2024-01-16T06:38:10;100104.56;;;-1.91;100.00
75460;BME280;64039;53.060;9.342;2024-01-16T06:40:36;100104.56;;;-1.76;100.00
75460;BME280;64039;53.060;9.342;2024-01-16T06:43:01;100100.78;;;-1.82;100.00
75460;BME280;64039;53.060;9.342;2024-01-16T06:45:27;100099.47;;;-1.91;100.00
75460;BME280;64039;53.060;9.342;2024-01-16T06:47:52;100097.69;;;-1.92;100.00
75460;BME280;64039;53.060;9.342;2024-01-16T06:50:17;100094.63;;;-1.86;100.00
75460;BME280;64039;53.060;9.342;2024-01-16T06:52:43;100091.53;;;-1.95;100.00
75460;BME280;64039;53.060;9.342;2024-01-16T06:55:08;100085.94;;;-1.75;100.00
75460;BME280;64039;53.060;9.342;2024-01-16T06:57:34;100090.31;;;-1.72;100.00
75460;BME280;64039;53.060;9.342;2024-01-16T06:59:59;100102.56;;;-1.81;100.00
75460;BME280;64039;53.060;9.342;2024-01-16T07:02:24;100098.06;;;-1.85;100.00
75460;BME280;64039;53.060;9.342;2024-01-16T07:04:51;100108.06;;;-1.88;100.00
75460;BME280;64039;53.060;9.342;2024-01-16T07:07:16;100104.69;;;-1.74;100.00
75460;BME280;64039;53.060;9.342;2024-01-16T07:09:42;100103.97;;;-1.71;100.00
75460;BME280;64039;53.060;9.342;2024-01-16T07:12:07;100095.00;;;-1.80;100.00
75460;BME280;64039;53.060;9.342;2024-01-16T07:14:33;100090.09;;;-1.77;100.00
75460;BME280;64039;53.060;9.342;2024-01-16T07:16:58;100088.84;;;-1.68;100.00
75460;BME280;64039;53.060;9.342;2024-01-16T07:19:24;100092.09;;;-1.71;100.00
75460;BME280;64039;53.060;9.342;2024-01-16T07:21:49;100101.69;;;-1.67;100.00
75460;BME280;64039;53.060;9.342;2024-01-16T07:24:15;100103.47;;;-1.66;100.00
75460;BME280;64039;53.060;9.342;2024-01-16T07:26:41;100111.94;;;-1.80;100.00
75460;BME280;64039;53.060;9.342;2024-01-16T07:29:06;100111.00;;;-1.67;100.00
75460;BME280;64039;53.060;9.342;2024-01-16T07:31:32;100118.31;;;-1.74;100.00
75460;BME280;64039;53.060;9.342;2024-01-16T07:33:57;100122.03;;;-1.68;100.00
75460;BME280;64039;53.060;9.342;2024-01-16T07:36:23;100121.47;;;-1.63;100.00
75460;BME280;64039;53.060;9.342;2024-01-16T07:38:48;100115.25;;;-1.68;100.00
75460;BME280;64039;53.060;9.342;2024-01-16T07:41:13;100109.00;;;-1.73;100.00
75460;BME280;64039;53.060;9.342;2024-01-16T07:43:39;100114.09;;;-1.73;100.00
75460;BME280;64039;53.060;9.342;2024-01-16T07:46:04;100111.91;;;-1.67;100.00
75460;BME280;64039;53.060;9.342;2024-01-16T07:48:30;100113.94;;;-1.61;100.00
75460;BME280;64039;53.060;9.342;2024-01-16T07:50:55;100113.41;;;-1.55;100.00
75460;BME280;64039;53.060;9.342;2024-01-16T07:53:21;100109.69;;;-1.61;100.00
75460;BME280;64039;53.060;9.342;2024-01-16T07:55:46;100114.78;;;-1.76;100.00
75460;BME280;64039;53.060;9.342;2024-01-16T07:58:12;100117.28;;;-1.62;100.00
75460;BME280;64039;53.060;9.342;2024-01-16T08:00:37;100115.16;;;-1.54;100.00
75460;BME280;64039;53.060;9.342;2024-01-16T08:03:06;100118.06;;;-1.63;100.00
75460;BME280;64039;53.060;9.342;2024-01-16T08:05:32;100119.13;;;-1.60;100.00
75460;BME280;64039;53.060;9.342;2024-01-16T08:07:57;100115.28;;;-1.53;100.00
75460;BME280;64039;53.060;9.342;2024-01-16T08:10:23;100119.13;;;-1.60;100.00
75460;BME280;64039;53.060;9.342;2024-01-16T08:12:48;100118.41;;;-1.57;100.00
75460;BME280;64039;53.060;9.342;2024-01-16T08:15:14;100117.13;;;-1.50;100.00
75460;BME280;64039;53.060;9.342;2024-01-16T08:17:40;100117.81;;;-1.53;100.00
75460;BME280;64039;53.060;9.342;2024-01-16T08:20:06;100126.44;;;-1.51;100.00
75460;BME280;64039;53.060;9.342;2024-01-16T08:22:38;100120.44;;;-1.51;100.00
75460;BME280;64039;53.060;9.342;2024-01-16T08:25:04;100133.03;;;-1.54;100.00
75460;BME280;64039;53.060;9.342;2024-01-16T08:27:32;100137.56;;;-1.35;100.00
75460;BME280;64039;53.060;9.342;2024-01-16T08:29:58;100130.22;;;-1.44;100.00
75460;BME280;64039;53.060;9.342;2024-01-16T08:32:23;100131.19;;;-1.42;100.00
75460;BME280;64039;53.060;9.342;2024-01-16T08:34:49;100136.06;;;-1.32;100.00
75460;BME280;64039;53.060;9.342;2024-01-16T08:37:14;100127.44;;;-1.19;100.00
75460;BME280;64039;53.060;9.342;2024-01-16T08:39:40;100124.16;;;-1.01;100.00
75460;BME280;64039;53.060;9.342;2024-01-16T08:42:05;100129.94;;;-1.04;100.00
75460;BME280;64039;53.060;9.342;2024-01-16T08:44:31;100134.53;;;-0.98;100.00
75460;BME280;64039;53.060;9.342;2024-01-16T08:46:56;100128.38;;;-0.87;100.00
75460;BME280;64039;53.060;9.342;2024-01-16T08:49:23;100134.53;;;-0.98;100.00
75460;BME280;64039;53.060;9.342;2024-01-16T08:51:48;100137.34;;;-0.93;100.00
75460;BME280;64039;53.060;9.342;2024-01-16T08:54:14;100132.31;;;-0.92;100.00
75460;BME280;64039;53.060;9.342;2024-01-16T08:56:39;100142.53;;;-0.92;100.00
75460;BME280;64039;53.060;9.342;2024-01-16T08:59:04;100141.94;;;-0.88;100.00
75460;BME280;64039;53.060;9.342;2024-01-16T09:01:30;100139.38;;;-0.88;100.00
75460;BME280;64039;53.060;9.342;2024-01-16T09:03:55;100136.38;;;-0.81;100.00
75460;BME280;64039;53.060;9.342;2024-01-16T09:06:21;100140.47;;;-0.68;100.00
75460;BME280;64039;53.060;9.342;2024-01-16T09:08:46;100139.63;;;-0.68;100.00
75460;BME280;64039;53.060;9.342;2024-01-16T09:11:12;100139.88;;;-0.64;100.00
75460;BME280;64039;53.060;9.342;2024-01-16T09:13:38;100134.97;;;-0.90;100.00
75460;BME280;64039;53.060;9.342;2024-01-16T09:16:04;100125.44;;;-0.78;100.00
75460;BME280;64039;53.060;9.342;2024-01-16T09:18:29;100137.66;;;-0.72;100.00
75460;BME280;64039;53.060;9.342;2024-01-16T09:20:55;100137.78;;;-0.54;100.00
75460;BME280;64039;53.060;9.342;2024-01-16T09:23:20;100136.31;;;-0.51;100.00
75460;BME280;64039;53.060;9.342;2024-01-16T09:25:46;100140.16;;;-0.42;100.00
75460;BME280;64039;53.060;9.342;2024-01-16T09:28:11;100138.97;;;-0.64;100.00
75460;BME280;64039;53.060;9.342;2024-01-16T09:30:37;100135.16;;;-0.56;100.00
75460;BME280;64039;53.060;9.342;2024-01-16T09:33:03;100152.63;;;-0.32;100.00
75460;BME280;64039;53.060;9.342;2024-01-16T09:35:32;100139.47;;;-0.23;100.00
75460;BME280;64039;53.060;9.342;2024-01-16T09:37:58;100146.75;;;-0.46;100.00
75460;BME280;64039;53.060;9.342;2024-01-16T09:40:25;100156.56;;;-0.39;100.00
75460;BME280;64039;53.060;9.342;2024-01-16T09:42:51;100150.88;;;-0.33;100.00
75460;BME280;64039;53.060;9.342;2024-01-16T09:45:19;100150.41;;;-0.42;100.00
75460;BME280;64039;53.060;9.342;2024-01-16T09:47:51;100156.97;;;-0.14;100.00
75460;BME280;64039;53.060;9.342;2024-01-16T09:50:18;100155.06;;;-0.50;100.00
75460;BME280;64039;53.060;9.342;2024-01-16T09:52:47;100149.16;;;-0.18;100.00
75460;BME280;64039;53.060;9.342;2024-01-16T09:55:14;100158.19;;;-0.24;100.00
75460;BME280;64039;53.060;9.342;2024-01-16T09:57:40;100158.97;;;-0.25;100.00
75460;BME280;64039;53.060;9.342;2024-01-16T10:00:09;100152.28;;;-0.07;100.00
75460;BME280;64039;53.060;9.342;2024-01-16T10:02:40;100147.97;;;0.25;100.00
75460;BME280;64039;53.060;9.342;2024-01-16T10:05:10;100152.59;;;0.16;100.00
75460;BME280;64039;53.060;9.342;2024-01-16T10:07:38;100144.44;;;0.40;100.00
75460;BME280;64039;53.060;9.342;2024-01-16T10:10:04;100151.88;;;0.35;100.00
75460;BME280;64039;53.060;9.342;2024-01-16T10:12:30;100153.88;;;0.08;100.00
75460;BME280;64039;53.060;9.342;2024-01-16T10:14:55;100159.97;;;0.26;100.00
75460;BME280;64039;53.060;9.342;2024-01-16T10:17:21;100156.28;;;0.05;100.00
75460;BME280;64039;53.060;9.342;2024-01-16T10:19:51;100152.44;;;0.13;100.00
75460;BME280;64039;53.060;9.342;2024-01-16T10:22:22;100161.84;;;-0.19;100.00
75460;BME280;64039;53.060;9.342;2024-01-16T10:25:04;100158.75;;;0.36;100.00
75460;BME280;64039;53.060;9.342;2024-01-16T10:27:31;100152.84;;;0.37;100.00
75460;BME280;64039;53.060;9.342;2024-01-16T10:29:58;100149.72;;;0.43;100.00
75460;BME280;64039;53.060;9.342;2024-01-16T10:32:28;100155.00;;;0.46;100.00
75460;BME280;64039;53.060;9.342;2024-01-16T10:37:31;100169.97;;;0.38;100.00
75460;BME280;64039;53.060;9.342;2024-01-16T10:40:07;100156.94;;;0.34;100.00
75460;BME280;64039;53.060;9.342;2024-01-16T10:42:32;100163.16;;;0.39;100.00
75460;BME280;64039;53.060;9.342;2024-01-16T10:44:58;100167.13;;;0.67;100.00
75460;BME280;64039;53.060;9.342;2024-01-16T10:47:23;100165.38;;;0.66;100.00
75460;BME280;64039;53.060;9.342;2024-01-16T10:49:49;100167.44;;;0.73;100.00
75460;BME280;64039;53.060;9.342;2024-01-16T10:52:14;100161.44;;;0.72;100.00
75460;BME280;64039;53.060;9.342;2024-01-16T10:54:43;100156.75;;;0.30;100.00
75460;BME280;64039;53.060;9.342;2024-01-16T10:57:13;100167.47;;;0.40;100.00
75460;BME280;64039;53.060;9.342;2024-01-16T11:00:20;100168.44;;;0.25;100.00
75460;BME280;64039;53.060;9.342;2024-01-16T11:03:06;100155.22;;;0.67;100.00
75460;BME280;64039;53.060;9.342;2024-01-16T11:05:32;100163.72;;;0.66;100.00
75460;BME280;64039;53.060;9.342;2024-01-16T11:07:59;100170.56;;;0.84;100.00
75460;BME280;64039;53.060;9.342;2024-01-16T11:10:29;100166.28;;;0.66;100.00
75460;BME280;64039;53.060;9.342;2024-01-16T11:12:59;100177.06;;;0.60;100.00
75460;BME280;64039;53.060;9.342;2024-01-16T11:15:25;100175.13;;;0.73;100.00
75460;BME280;64039;53.060;9.342;2024-01-16T11:17:54;100175.13;;;0.73;100.00
75460;BME280;64039;53.060;9.342;2024-01-16T11:20:20;100175.47;;;0.62;100.00
75460;BME280;64039;53.060;9.342;2024-01-16T11:22:47;100179.41;;;0.39;100.00
75460;BME280;64039;53.060;9.342;2024-01-16T11:25:14;100187.34;;;0.44;100.00
75460;BME280;64039;53.060;9.342;2024-01-16T11:27:41;100173.56;;;0.42;100.00
75460;BME280;64039;53.060;9.342;2024-01-16T11:30:09;100172.22;;;0.49;100.00
75460;BME280;64039;53.060;9.342;2024-01-16T11:32:40;100168.50;;;0.60;100.00
75460;BME280;64039;53.060;9.342;2024-01-16T11:35:08;100172.16;;;0.82;100.00
75460;BME280;64039;53.060;9.342;2024-01-16T11:37:35;100168.13;;;0.87;100.00
75460;BME280;64039;53.060;9.342;2024-01-16T11:42:49;100167.56;;;0.58;100.00
75460;BME280;64039;53.060;9.342;2024-01-16T11:48:12;100173.75;;;0.28;100.00
75460;BME280;64039;53.060;9.342;2024-01-16T11:50:38;100173.31;;;0.37;100.00
75460;BME280;64039;53.060;9.342;2024-01-16T11:53:04;100172.44;;;0.53;100.00
75460;BME280;64039;53.060;9.342;2024-01-16T11:55:32;100164.28;;;0.44;100.00
75460;BME280;64039;53.060;9.342;2024-01-16T12:00:52;100172.28;;;0.01;100.00
75460;BME280;64039;53.060;9.342;2024-01-16T12:03:21;100176.44;;;0.15;100.00
75460;BME280;64039;53.060;9.342;2024-01-16T12:05:59;100167.66;;;0.43;100.00
75460;BME280;64039;53.060;9.342;2024-01-16T12:08:25;100172.28;;;0.50;100.00
75460;BME280;64039;53.060;9.342;2024-01-16T12:10:51;100170.34;;;0.29;100.00
75460;BME280;64039;53.060;9.342;2024-01-16T12:13:16;100184.22;;;0.17;100.00
75460;BME280;64039;53.060;9.342;2024-01-16T12:15:42;100184.78;;;0.27;100.00
75460;BME280;64039;53.060;9.342;2024-01-16T12:18:08;100179.56;;;0.26;100.00
75460;BME280;64039;53.060;9.342;2024-01-16T12:20:35;100180.22;;;0.22;100.00
75460;BME280;64039;53.060;9.342;2024-01-16T12:23:08;100179.16;;;0.18;100.00
75460;BME280;64039;53.060;9.342;2024-01-16T12:25:36;100176.34;;;-0.20;100.00
75460;BME280;64039;53.060;9.342;2024-01-16T12:28:07;100173.78;;;-0.20;100.00
75460;BME280;64039;53.060;9.342;2024-01-16T12:30:37;100175.69;;;0.01;100.00
75460;BME280;64039;53.060;9.342;2024-01-16T12:33:13;100170.59;;;0.01;100.00
75460;BME280;64039;53.060;9.342;2024-01-16T12:35:43;100161.19;;;0.17;100.00
75460;BME280;64039;53.060;9.342;2024-01-16T12:38:13;100161.88;;;0.14;100.00
75460;BME280;64039;53.060;9.342;2024-01-16T12:40:47;100166.31;;;0.17;100.00
75460;BME280;64039;53.060;9.342;2024-01-16T12:43:18;100173.16;;;0.01;100.00
75460;BME280;64039;53.060;9.342;2024-01-16T12:45:44;100168.28;;;0.06;100.00
75460;BME280;64039;53.060;9.342;2024-01-16T12:48:10;100167.88;;;-0.02;100.00
75460;BME280;64039;53.060;9.342;2024-01-16T12:50:36;100171.31;;;-0.02;100.00